sensor_id;sensor_type;location;lat;lon;timestamp;P1;durP1;ratioP1;P2;durP2;ratioP2
20179;SDS011;10249;48.900;9.090;2022-10-31T00:01:47;3.90;;;3.80;;
20179;SDS011;10249;48.900;9.090;2022-10-31T00:04:14;4.00;;;3.90;;
20179;SDS011;10249;48.900;9.090;2022-10-31T00:06:41;3.70;;;3.60;;
20179;SDS011;10249;48.900;9.090;2022-10-31T00:09:09;3.60;;;3.50;;
20179;SDS011;10249;48.900;9.090;2022-10-31T00:11:36;3.70;;;3.60;;
20179;SDS011;10249;48.900;9.090;2022-10-31T00:14:03;3.87;;;3.77;;
20179;SDS011;10249;48.900;9.090;2022-10-31T00:16:32;3.80;;;3.70;;
20179;SDS011;10249;48.900;9.090;2022-10-31T00:18:59;3.90;;;3.80;;
20179;SDS011;10249;48.900;9.090;2022-10-31T00:21:27;3.80;;;3.70;;
20179;SDS011;10249;48.900;9.090;2022-10-31T00:23:54;3.97;;;3.87;;
20179;SDS011;10249;48.900;9.090;2022-10-31T00:26:22;3.80;;;3.70;;
20179;SDS011;10249;48.900;9.090;2022-10-31T00:28:49;4.10;;;4.00;;
20179;SDS011;10249;48.900;9.090;2022-10-31T00:31:16;4.00;;;3.90;;
20179;SDS011;10249;48.900;9.090;2022-10-31T00:33:44;3.77;;;3.67;;
20179;SDS011;10249;48.900;9.090;2022-10-31T00:36:12;4.20;;;4.10;;
20179;SDS011;10249;48.900;9.090;2022-10-31T00:38:39;4.10;;;4.00;;
20179;SDS011;10249;48.900;9.090;2022-10-31T00:41:06;4.30;;;4.20;;
20179;SDS011;10249;48.900;9.090;2022-10-31T00:43:34;3.90;;;3.80;;
20179;SDS011;10249;48.900;9.090;2022-10-31T00:46:01;3.73;;;3.63;;
20179;SDS011;10249;48.900;9.090;2022-10-31T00:48:28;4.00;;;3.90;;
20179;SDS011;10249;48.900;9.090;2022-10-31T00:50:56;4.10;;;4.00;;
20179;SDS011;10249;48.900;9.090;2022-10-31T00:53:23;4.30;;;4.20;;
20179;SDS011;10249;48.900;9.090;2022-10-31T00:55:51;4.87;;;4.77;;
20179;SDS011;10249;48.900;9.090;2022-10-31T00:58:18;4.30;;;4.20;;
20179;SDS011;10249;48.900;9.090;2022-10-31T01:00:46;4.30;;;4.20;;
20179;SDS011;10249;48.900;9.090;2022-10-31T01:03:19;4.50;;;4.40;;
20179;SDS011;10249;48.900;9.090;2022-10-31T01:05:54;4.43;;;4.33;;
20179;SDS011;10249;48.900;9.090;2022-10-31T01:08:23;6.53;;;6.33;;
20179;SDS011;10249;48.900;9.090;2022-10-31T01:10:57;4.30;;;4.20;;
20179;SDS011;10249;48.900;9.090;2022-10-31T01:13:24;4.57;;;4.47;;
20179;SDS011;10249;48.900;9.090;2022-10-31T01:15:53;4.40;;;4.30;;
20179;SDS011;10249;48.900;9.090;2022-10-31T01:18:20;4.30;;;4.20;;
20179;SDS011;10249;48.900;9.090;2022-10-31T01:20:47;4.10;;;4.00;;
20179;SDS011;10249;48.900;9.090;2022-10-31T01:23:14;4.00;;;3.90;;
20179;SDS011;10249;48.900;9.090;2022-10-31T01:25:42;3.70;;;3.60;;
20179;SDS011;10249;48.900;9.090;2022-10-31T01:28:09;3.80;;;3.70;;
20179;SDS011;10249;48.900;9.090;2022-10-31T01:30:36;3.70;;;3.60;;
20179;SDS011;10249;48.900;9.090;2022-10-31T01:33:03;3.60;;;3.50;;
20179;SDS011;10249;48.900;9.090;2022-10-31T01:35:30;4.00;;;3.90;;
20179;SDS011;10249;48.900;9.090;2022-10-31T01:37:58;3.90;;;3.80;;
20179;SDS011;10249;48.900;9.090;2022-10-31T01:40:28;4.00;;;3.90;;
20179;SDS011;10249;48.900;9.090;2022-10-31T01:42:57;4.20;;;4.10;;
20179;SDS011;10249;48.900;9.090;2022-10-31T01:45:24;4.00;;;3.90;;
20179;SDS011;10249;48.900;9.090;2022-10-31T01:47:51;4.00;;;3.90;;
20179;SDS011;10249;48.900;9.090;2022-10-31T01:50:24;4.00;;;3.90;;
20179;SDS011;10249;48.900;9.090;2022-10-31T01:52:53;3.80;;;3.70;;
20179;SDS011;10249;48.900;9.090;2022-10-31T01:55:21;3.87;;;3.77;;
20179;SDS011;10249;48.900;9.090;2022-10-31T01:57:50;3.67;;;3.57;;
20179;SDS011;10249;48.900;9.090;2022-10-31T02:00:20;3.87;;;3.77;;
20179;SDS011;10249;48.900;9.090;2022-10-31T02:02:47;4.10;;;4.00;;
20179;SDS011;10249;48.900;9.090;2022-10-31T02:05:17;3.80;;;3.70;;
20179;SDS011;10249;48.900;9.090;2022-10-31T02:07:45;3.90;;;3.80;;
20179;SDS011;10249;48.900;9.090;2022-10-31T02:10:15;4.20;;;4.10;;
20179;SDS011;10249;48.900;9.090;2022-10-31T02:12:42;4.10;;;4.00;;
20179;SDS011;10249;48.900;9.090;2022-10-31T02:15:09;4.00;;;3.90;;
20179;SDS011;10249;48.900;9.090;2022-10-31T02:17:38;4.20;;;4.10;;
20179;SDS011;10249;48.900;9.090;2022-10-31T02:20:09;4.40;;;4.30;;
20179;SDS011;10249;48.900;9.090;2022-10-31T02:22:40;7.50;;;7.07;;
20179;SDS011;10249;48.900;9.090;2022-10-31T02:25:16;3.90;;;3.80;;
20179;SDS011;10249;48.900;9.090;2022-10-31T02:30:30;3.10;;;3.00;;
20179;SDS011;10249;48.900;9.090;2022-10-31T02:33:07;3.20;;;3.10;;
20179;SDS011;10249;48.900;9.090;2022-10-31T02:35:39;3.33;;;3.23;;
20179;SDS011;10249;48.900;9.090;2022-10-31T02:38:10;3.40;;;3.30;;
20179;SDS011;10249;48.900;9.090;2022-10-31T02:40:39;3.40;;;3.30;;
20179;SDS011;10249;48.900;9.090;2022-10-31T02:43:12;3.10;;;3.00;;
20179;SDS011;10249;48.900;9.090;2022-10-31T02:45:44;3.40;;;3.30;;
20179;SDS011;10249;48.900;9.090;2022-10-31T02:48:14;3.33;;;3.23;;
20179;SDS011;10249;48.900;9.090;2022-10-31T02:50:45;3.40;;;3.30;;
20179;SDS011;10249;48.900;9.090;2022-10-31T02:53:15;3.50;;;3.40;;
20179;SDS011;10249;48.900;9.090;2022-10-31T02:55:44;3.37;;;3.27;;
20179;SDS011;10249;48.900;9.090;2022-10-31T02:58:14;3.43;;;3.33;;
20179;SDS011;10249;48.900;9.090;2022-10-31T03:00:43;3.20;;;3.10;;
20179;SDS011;10249;48.900;9.090;2022-10-31T03:03:15;3.60;;;3.50;;
20179;SDS011;10249;48.900;9.090;2022-10-31T03:05:48;3.40;;;3.30;;
20179;SDS011;10249;48.900;9.090;2022-10-31T03:08:19;3.40;;;3.30;;
20179;SDS011;10249;48.900;9.090;2022-10-31T03:10:50;3.40;;;3.30;;
20179;SDS011;10249;48.900;9.090;2022-10-31T03:13:20;3.33;;;3.23;;
20179;SDS011;10249;48.900;9.090;2022-10-31T03:15:50;3.97;;;3.77;;
20179;SDS011;10249;48.900;9.090;2022-10-31T03:18:20;3.10;;;3.00;;
20179;SDS011;10249;48.900;9.090;2022-10-31T03:20:50;3.53;;;3.43;;
20179;SDS011;10249;48.900;9.090;2022-10-31T03:23:19;2.70;;;2.60;;
20179;SDS011;10249;48.900;9.090;2022-10-31T03:25:48;3.00;;;2.90;;
20179;SDS011;10249;48.900;9.090;2022-10-31T03:28:16;2.77;;;2.67;;
20179;SDS011;10249;48.900;9.090;2022-10-31T03:30:45;2.63;;;2.53;;
20179;SDS011;10249;48.900;9.090;2022-10-31T03:33:14;2.80;;;2.70;;
20179;SDS011;10249;48.900;9.090;2022-10-31T03:35:44;2.80;;;2.70;;
20179;SDS011;10249;48.900;9.090;2022-10-31T03:38:13;2.70;;;2.60;;
20179;SDS011;10249;48.900;9.090;2022-10-31T03:40:42;2.70;;;2.60;;
20179;SDS011;10249;48.900;9.090;2022-10-31T03:43:10;2.70;;;2.60;;
20179;SDS011;10249;48.900;9.090;2022-10-31T03:45:39;2.60;;;2.50;;
20179;SDS011;10249;48.900;9.090;2022-10-31T03:48:08;2.80;;;2.70;;
20179;SDS011;10249;48.900;9.090;2022-10-31T03:50:36;2.73;;;2.63;;
20179;SDS011;10249;48.900;9.090;2022-10-31T03:53:08;2.80;;;2.70;;
20179;SDS011;10249;48.900;9.090;2022-10-31T03:55:38;2.90;;;2.80;;
20179;SDS011;10249;48.900;9.090;2022-10-31T03:58:08;2.90;;;2.80;;
20179;SDS011;10249;48.900;9.090;2022-10-31T04:00:36;2.97;;;2.87;;
20179;SDS011;10249;48.900;9.090;2022-10-31T04:03:07;2.97;;;2.87;;
20179;SDS011;10249;48.900;9.090;2022-10-31T04:05:36;3.20;;;3.10;;
20179;SDS011;10249;48.900;9.090;2022-10-31T04:08:04;2.90;;;2.80;;
20179;SDS011;10249;48.900;9.090;2022-10-31T04:10:35;3.00;;;2.90;;
20179;SDS011;10249;48.900;9.090;2022-10-31T04:13:04;3.10;;;3.00;;
20179;SDS011;10249;48.900;9.090;2022-10-31T04:15:32;3.10;;;3.00;;
20179;SDS011;10249;48.900;9.090;2022-10-31T04:18:00;3.30;;;3.20;;
20179;SDS011;10249;48.900;9.090;2022-10-31T04:20:32;3.30;;;3.20;;
20179;SDS011;10249;48.900;9.090;2022-10-31T04:22:59;3.10;;;3.00;;
20179;SDS011;10249;48.900;9.090;2022-10-31T04:25:27;4.50;;;4.40;;
20179;SDS011;10249;48.900;9.090;2022-10-31T04:27:55;3.20;;;3.10;;
20179;SDS011;10249;48.900;9.090;2022-10-31T04:30:22;3.10;;;3.00;;
20179;SDS011;10249;48.900;9.090;2022-10-31T04:32:49;3.17;;;3.07;;
20179;SDS011;10249;48.900;9.090;2022-10-31T04:35:16;3.10;;;3.00;;
20179;SDS011;10249;48.900;9.090;2022-10-31T04:37:43;3.10;;;3.00;;
20179;SDS011;10249;48.900;9.090;2022-10-31T04:40:10;3.10;;;3.00;;
20179;SDS011;10249;48.900;9.090;2022-10-31T04:42:38;3.00;;;2.90;;
20179;SDS011;10249;48.900;9.090;2022-10-31T04:45:06;3.00;;;2.90;;
20179;SDS011;10249;48.900;9.090;2022-10-31T04:47:33;2.93;;;2.83;;
20179;SDS011;10249;48.900;9.090;2022-10-31T04:50:01;2.87;;;2.77;;
20179;SDS011;10249;48.900;9.090;2022-10-31T04:52:28;3.00;;;2.90;;
20179;SDS011;10249;48.900;9.090;2022-10-31T04:54:55;3.20;;;3.10;;
20179;SDS011;10249;48.900;9.090;2022-10-31T04:57:22;3.20;;;3.10;;
20179;SDS011;10249;48.900;9.090;2022-10-31T04:59:49;3.00;;;2.90;;
20179;SDS011;10249;48.900;9.090;2022-10-31T05:02:18;2.90;;;2.80;;
20179;SDS011;10249;48.900;9.090;2022-10-31T05:04:45;3.80;;;3.50;;
20179;SDS011;10249;48.900;9.090;2022-10-31T05:07:12;3.20;;;3.10;;
20179;SDS011;10249;48.900;9.090;2022-10-31T05:09:39;3.20;;;3.10;;
20179;SDS011;10249;48.900;9.090;2022-10-31T05:12:06;4.87;;;4.67;;
20179;SDS011;10249;48.900;9.090;2022-10-31T05:14:33;2.70;;;2.60;;
20179;SDS011;10249;48.900;9.090;2022-10-31T05:17:00;2.50;;;2.40;;
20179;SDS011;10249;48.900;9.090;2022-10-31T05:19:28;4.13;;;4.00;;
20179;SDS011;10249;48.900;9.090;2022-10-31T05:21:55;3.60;;;3.50;;
20179;SDS011;10249;48.900;9.090;2022-10-31T05:24:22;2.50;;;2.40;;
20179;SDS011;10249;48.900;9.090;2022-10-31T05:26:49;2.77;;;2.67;;
20179;SDS011;10249;48.900;9.090;2022-10-31T05:29:16;2.60;;;2.50;;
20179;SDS011;10249;48.900;9.090;2022-10-31T05:31:43;2.60;;;2.50;;
20179;SDS011;10249;48.900;9.090;2022-10-31T05:34:10;2.70;;;2.60;;
20179;SDS011;10249;48.900;9.090;2022-10-31T05:36:39;2.73;;;2.63;;
20179;SDS011;10249;48.900;9.090;2022-10-31T05:39:06;3.30;;;3.20;;
20179;SDS011;10249;48.900;9.090;2022-10-31T05:41:33;2.90;;;2.80;;
20179;SDS011;10249;48.900;9.090;2022-10-31T05:44:00;3.07;;;2.97;;
20179;SDS011;10249;48.900;9.090;2022-10-31T05:46:27;3.00;;;2.90;;
20179;SDS011;10249;48.900;9.090;2022-10-31T05:48:54;3.30;;;3.20;;
20179;SDS011;10249;48.900;9.090;2022-10-31T05:51:21;3.20;;;3.10;;
20179;SDS011;10249;48.900;9.090;2022-10-31T05:53:50;3.93;;;3.83;;
20179;SDS011;10249;48.900;9.090;2022-10-31T05:56:17;3.27;;;3.17;;
20179;SDS011;10249;48.900;9.090;2022-10-31T05:58:44;3.10;;;3.00;;
20179;SDS011;10249;48.900;9.090;2022-10-31T06:01:11;3.37;;;3.27;;
20179;SDS011;10249;48.900;9.090;2022-10-31T06:03:38;2.80;;;2.70;;
20179;SDS011;10249;48.900;9.090;2022-10-31T06:06:05;2.80;;;2.70;;
20179;SDS011;10249;48.900;9.090;2022-10-31T06:08:32;2.70;;;2.60;;
20179;SDS011;10249;48.900;9.090;2022-10-31T06:11:01;2.97;;;2.87;;
20179;SDS011;10249;48.900;9.090;2022-10-31T06:13:28;2.90;;;2.80;;
20179;SDS011;10249;48.900;9.090;2022-10-31T06:15:55;2.97;;;2.87;;
20179;SDS011;10249;48.900;9.090;2022-10-31T06:18:22;3.10;;;3.00;;
20179;SDS011;10249;48.900;9.090;2022-10-31T06:20:49;3.00;;;2.90;;
20179;SDS011;10249;48.900;9.090;2022-10-31T06:23:16;2.90;;;2.80;;
20179;SDS011;10249;48.900;9.090;2022-10-31T06:25:47;2.80;;;2.70;;
20179;SDS011;10249;48.900;9.090;2022-10-31T06:28:16;2.70;;;2.60;;
20179;SDS011;10249;48.900;9.090;2022-10-31T06:30:43;2.60;;;2.50;;
20179;SDS011;10249;48.900;9.090;2022-10-31T06:33:10;2.70;;;2.60;;
20179;SDS011;10249;48.900;9.090;2022-10-31T06:35:37;2.60;;;2.50;;
20179;SDS011;10249;48.900;9.090;2022-10-31T06:38:04;2.90;;;2.80;;
20179;SDS011;10249;48.900;9.090;2022-10-31T06:40:31;2.80;;;2.70;;
20179;SDS011;10249;48.900;9.090;2022-10-31T06:42:58;2.73;;;2.63;;
20179;SDS011;10249;48.900;9.090;2022-10-31T06:45:27;2.73;;;2.63;;
20179;SDS011;10249;48.900;9.090;2022-10-31T06:47:54;2.63;;;2.53;;
20179;SDS011;10249;48.900;9.090;2022-10-31T06:50:22;3.10;;;3.00;;
20179;SDS011;10249;48.900;9.090;2022-10-31T06:52:51;2.50;;;2.40;;
20179;SDS011;10249;48.900;9.090;2022-10-31T06:55:19;2.40;;;2.30;;
20179;SDS011;10249;48.900;9.090;2022-10-31T06:57:50;2.50;;;2.40;;
20179;SDS011;10249;48.900;9.090;2022-10-31T07:00:17;2.20;;;2.10;;
20179;SDS011;10249;48.900;9.090;2022-10-31T07:02:53;2.30;;;2.20;;
20179;SDS011;10249;48.900;9.090;2022-10-31T07:05:20;2.27;;;2.17;;
20179;SDS011;10249;48.900;9.090;2022-10-31T07:07:47;2.43;;;2.33;;
20179;SDS011;10249;48.900;9.090;2022-10-31T07:10:18;2.50;;;2.40;;
20179;SDS011;10249;48.900;9.090;2022-10-31T07:12:45;2.67;;;2.57;;
20179;SDS011;10249;48.900;9.090;2022-10-31T07:15:12;2.73;;;2.63;;
20179;SDS011;10249;48.900;9.090;2022-10-31T07:17:39;2.50;;;2.40;;
20179;SDS011;10249;48.900;9.090;2022-10-31T07:20:08;2.60;;;2.50;;
20179;SDS011;10249;48.900;9.090;2022-10-31T07:22:35;2.80;;;2.70;;
20179;SDS011;10249;48.900;9.090;2022-10-31T07:25:03;2.73;;;2.63;;
20179;SDS011;10249;48.900;9.090;2022-10-31T07:27:34;2.77;;;2.67;;
20179;SDS011;10249;48.900;9.090;2022-10-31T07:30:02;3.00;;;2.90;;
20179;SDS011;10249;48.900;9.090;2022-10-31T07:32:36;3.03;;;2.93;;
20179;SDS011;10249;48.900;9.090;2022-10-31T07:35:04;2.80;;;2.70;;
20179;SDS011;10249;48.900;9.090;2022-10-31T07:37:32;3.00;;;2.90;;
20179;SDS011;10249;48.900;9.090;2022-10-31T07:39:59;3.30;;;3.20;;
20179;SDS011;10249;48.900;9.090;2022-10-31T07:42:26;3.50;;;3.40;;
20179;SDS011;10249;48.900;9.090;2022-10-31T07:44:53;3.80;;;3.70;;
20179;SDS011;10249;48.900;9.090;2022-10-31T07:47:21;3.63;;;3.53;;
20179;SDS011;10249;48.900;9.090;2022-10-31T07:49:48;3.70;;;3.60;;
20179;SDS011;10249;48.900;9.090;2022-10-31T07:52:15;3.70;;;3.60;;
20179;SDS011;10249;48.900;9.090;2022-10-31T07:54:43;4.60;;;4.50;;
20179;SDS011;10249;48.900;9.090;2022-10-31T07:57:10;5.03;;;4.67;;
20179;SDS011;10249;48.900;9.090;2022-10-31T07:59:37;4.37;;;4.27;;
20179;SDS011;10249;48.900;9.090;2022-10-31T08:02:04;3.70;;;3.60;;
20179;SDS011;10249;48.900;9.090;2022-10-31T08:04:32;3.57;;;3.47;;
20179;SDS011;10249;48.900;9.090;2022-10-31T08:06:59;3.67;;;3.57;;
20179;SDS011;10249;48.900;9.090;2022-10-31T08:09:26;3.73;;;3.63;;
20179;SDS011;10249;48.900;9.090;2022-10-31T08:11:54;3.87;;;3.77;;
20179;SDS011;10249;48.900;9.090;2022-10-31T08:14:21;3.73;;;3.63;;
20179;SDS011;10249;48.900;9.090;2022-10-31T08:16:48;5.67;;;5.23;;
20179;SDS011;10249;48.900;9.090;2022-10-31T08:19:15;3.10;;;3.00;;
20179;SDS011;10249;48.900;9.090;2022-10-31T08:21:42;3.00;;;2.90;;
20179;SDS011;10249;48.900;9.090;2022-10-31T08:24:09;3.03;;;2.93;;
20179;SDS011;10249;48.900;9.090;2022-10-31T08:26:37;3.00;;;2.90;;
20179;SDS011;10249;48.900;9.090;2022-10-31T08:29:05;3.50;;;3.40;;
20179;SDS011;10249;48.900;9.090;2022-10-31T08:31:32;3.30;;;3.20;;
20179;SDS011;10249;48.900;9.090;2022-10-31T08:33:59;3.73;;;3.63;;
20179;SDS011;10249;48.900;9.090;2022-10-31T08:36:27;4.20;;;4.10;;
20179;SDS011;10249;48.900;9.090;2022-10-31T08:38:54;4.03;;;3.93;;
20179;SDS011;10249;48.900;9.090;2022-10-31T08:41:22;4.33;;;4.23;;
20179;SDS011;10249;48.900;9.090;2022-10-31T08:43:49;4.60;;;4.50;;
20179;SDS011;10249;48.900;9.090;2022-10-31T08:46:18;5.00;;;4.90;;
20179;SDS011;10249;48.900;9.090;2022-10-31T08:48:47;5.00;;;4.90;;
20179;SDS011;10249;48.900;9.090;2022-10-31T08:51:14;5.40;;;5.20;;
20179;SDS011;10249;48.900;9.090;2022-10-31T08:53:41;5.50;;;5.30;;
20179;SDS011;10249;48.900;9.090;2022-10-31T08:56:08;5.70;;;5.50;;
20179;SDS011;10249;48.900;9.090;2022-10-31T08:58:35;5.87;;;5.67;;
20179;SDS011;10249;48.900;9.090;2022-10-31T09:01:02;5.87;;;5.67;;
20179;SDS011;10249;48.900;9.090;2022-10-31T09:03:31;6.10;;;5.90;;
20179;SDS011;10249;48.900;9.090;2022-10-31T09:05:58;6.10;;;5.90;;
20179;SDS011;10249;48.900;9.090;2022-10-31T09:08:28;5.93;;;5.73;;
20179;SDS011;10249;48.900;9.090;2022-10-31T09:10:55;6.33;;;6.13;;
20179;SDS011;10249;48.900;9.090;2022-10-31T09:13:23;6.17;;;5.97;;
20179;SDS011;10249;48.900;9.090;2022-10-31T09:15:50;6.30;;;6.10;;
20179;SDS011;10249;48.900;9.090;2022-10-31T09:18:18;6.70;;;6.50;;
20179;SDS011;10249;48.900;9.090;2022-10-31T09:20:47;7.13;;;6.93;;
20179;SDS011;10249;48.900;9.090;2022-10-31T09:23:15;7.37;;;7.17;;
20179;SDS011;10249;48.900;9.090;2022-10-31T09:25:42;7.13;;;6.93;;
20179;SDS011;10249;48.900;9.090;2022-10-31T09:28:10;7.63;;;7.43;;
20179;SDS011;10249;48.900;9.090;2022-10-31T09:30:38;7.70;;;7.50;;
20179;SDS011;10249;48.900;9.090;2022-10-31T09:33:06;8.00;;;7.80;;
20179;SDS011;10249;48.900;9.090;2022-10-31T09:35:33;8.23;;;7.93;;
20179;SDS011;10249;48.900;9.090;2022-10-31T09:38:02;8.50;;;8.20;;
20179;SDS011;10249;48.900;9.090;2022-10-31T09:40:30;8.77;;;8.47;;
20179;SDS011;10249;48.900;9.090;2022-10-31T09:42:59;9.00;;;8.70;;
20179;SDS011;10249;48.900;9.090;2022-10-31T09:45:31;8.90;;;8.60;;
20179;SDS011;10249;48.900;9.090;2022-10-31T09:48:06;8.90;;;8.60;;
20179;SDS011;10249;48.900;9.090;2022-10-31T09:50:38;8.97;;;8.67;;
20179;SDS011;10249;48.900;9.090;2022-10-31T09:53:09;9.10;;;8.80;;
20179;SDS011;10249;48.900;9.090;2022-10-31T09:55:39;10.30;;;9.90;;
20179;SDS011;10249;48.900;9.090;2022-10-31T09:58:07;9.20;;;8.90;;
20179;SDS011;10249;48.900;9.090;2022-10-31T10:00:35;9.17;;;8.87;;
20179;SDS011;10249;48.900;9.090;2022-10-31T10:03:06;9.37;;;9.07;;
20179;SDS011;10249;48.900;9.090;2022-10-31T10:05:39;9.70;;;9.40;;
20179;SDS011;10249;48.900;9.090;2022-10-31T10:08:10;9.83;;;9.53;;
20179;SDS011;10249;48.900;9.090;2022-10-31T10:10:42;9.87;;;9.57;;
20179;SDS011;10249;48.900;9.090;2022-10-31T10:13:16;9.70;;;9.40;;
20179;SDS011;10249;48.900;9.090;2022-10-31T10:15:52;10.53;;;10.13;;
20179;SDS011;10249;48.900;9.090;2022-10-31T10:18:22;10.00;;;9.70;;
20179;SDS011;10249;48.900;9.090;2022-10-31T10:20:56;10.10;;;9.80;;
20179;SDS011;10249;48.900;9.090;2022-10-31T10:23:32;11.30;;;10.90;;
20179;SDS011;10249;48.900;9.090;2022-10-31T10:26:04;11.30;;;10.90;;
20179;SDS011;10249;48.900;9.090;2022-10-31T10:28:35;11.90;;;11.50;;
20179;SDS011;10249;48.900;9.090;2022-10-31T10:31:05;11.47;;;11.07;;
20179;SDS011;10249;48.900;9.090;2022-10-31T10:33:34;11.60;;;11.20;;
20179;SDS011;10249;48.900;9.090;2022-10-31T10:36:03;12.30;;;11.80;;
20179;SDS011;10249;48.900;9.090;2022-10-31T10:38:34;13.57;;;13.07;;
20179;SDS011;10249;48.900;9.090;2022-10-31T10:41:04;12.67;;;12.17;;
20179;SDS011;10249;48.900;9.090;2022-10-31T10:43:32;12.63;;;12.13;;
20179;SDS011;10249;48.900;9.090;2022-10-31T10:46:05;13.67;;;13.07;;
20179;SDS011;10249;48.900;9.090;2022-10-31T10:48:54;12.13;;;11.73;;
20179;SDS011;10249;48.900;9.090;2022-10-31T10:51:26;12.00;;;11.60;;
20179;SDS011;10249;48.900;9.090;2022-10-31T10:54:08;12.70;;;12.20;;
20179;SDS011;10249;48.900;9.090;2022-10-31T10:56:45;11.97;;;11.57;;
20179;SDS011;10249;48.900;9.090;2022-10-31T10:59:19;11.97;;;11.57;;
20179;SDS011;10249;48.900;9.090;2022-10-31T11:01:47;11.50;;;11.10;;
20179;SDS011;10249;48.900;9.090;2022-10-31T11:04:21;13.20;;;12.70;;
20179;SDS011;10249;48.900;9.090;2022-10-31T11:06:57;13.23;;;12.73;;
20179;SDS011;10249;48.900;9.090;2022-10-31T11:09:25;14.00;;;13.40;;
20179;SDS011;10249;48.900;9.090;2022-10-31T11:11:53;14.30;;;13.70;;
20179;SDS011;10249;48.900;9.090;2022-10-31T11:14:20;14.57;;;13.97;;
20179;SDS011;10249;48.900;9.090;2022-10-31T11:16:49;14.27;;;13.67;;
20179;SDS011;10249;48.900;9.090;2022-10-31T11:19:17;12.60;;;12.10;;
20179;SDS011;10249;48.900;9.090;2022-10-31T11:21:45;11.60;;;11.20;;
20179;SDS011;10249;48.900;9.090;2022-10-31T11:24:14;12.27;;;11.77;;
20179;SDS011;10249;48.900;9.090;2022-10-31T11:26:44;11.93;;;11.53;;
20179;SDS011;10249;48.900;9.090;2022-10-31T11:29:15;11.93;;;11.53;;
20179;SDS011;10249;48.900;9.090;2022-10-31T11:31:44;11.97;;;11.57;;
20179;SDS011;10249;48.900;9.090;2022-10-31T11:34:18;11.67;;;11.27;;
20179;SDS011;10249;48.900;9.090;2022-10-31T11:36:47;11.80;;;11.40;;
20179;SDS011;10249;48.900;9.090;2022-10-31T11:39:16;11.67;;;11.27;;
20179;SDS011;10249;48.900;9.090;2022-10-31T11:41:45;11.73;;;11.33;;
20179;SDS011;10249;48.900;9.090;2022-10-31T11:44:13;11.80;;;11.40;;
20179;SDS011;10249;48.900;9.090;2022-10-31T11:46:42;11.73;;;11.33;;
20179;SDS011;10249;48.900;9.090;2022-10-31T11:49:12;11.80;;;11.40;;
20179;SDS011;10249;48.900;9.090;2022-10-31T11:51:41;12.07;;;11.57;;
20179;SDS011;10249;48.900;9.090;2022-10-31T11:54:14;11.90;;;11.50;;
20179;SDS011;10249;48.900;9.090;2022-10-31T11:56:42;11.93;;;11.50;;
20179;SDS011;10249;48.900;9.090;2022-10-31T12:01:56;12.77;;;12.27;;
20179;SDS011;10249;48.900;9.090;2022-10-31T12:04:27;12.40;;;11.90;;
20179;SDS011;10249;48.900;9.090;2022-10-31T12:06:56;12.60;;;12.10;;
20179;SDS011;10249;48.900;9.090;2022-10-31T12:09:25;11.60;;;11.20;;
20179;SDS011;10249;48.900;9.090;2022-10-31T12:12:05;11.70;;;11.30;;
20179;SDS011;10249;48.900;9.090;2022-10-31T12:14:39;12.10;;;11.60;;
20179;SDS011;10249;48.900;9.090;2022-10-31T12:17:13;24.43;;;13.00;;
20179;SDS011;10249;48.900;9.090;2022-10-31T12:19:42;12.07;;;11.60;;
20179;SDS011;10249;48.900;9.090;2022-10-31T12:22:13;12.13;;;11.73;;
20179;SDS011;10249;48.900;9.090;2022-10-31T12:24:50;11.60;;;11.20;;
20179;SDS011;10249;48.900;9.090;2022-10-31T12:27:23;11.13;;;10.73;;
20179;SDS011;10249;48.900;9.090;2022-10-31T12:29:58;11.70;;;11.30;;
20179;SDS011;10249;48.900;9.090;2022-10-31T12:32:32;11.73;;;11.33;;
20179;SDS011;10249;48.900;9.090;2022-10-31T12:35:21;11.80;;;11.40;;
20179;SDS011;10249;48.900;9.090;2022-10-31T12:37:53;13.07;;;12.57;;
20179;SDS011;10249;48.900;9.090;2022-10-31T12:40:38;12.00;;;11.50;;
20179;SDS011;10249;48.900;9.090;2022-10-31T12:43:12;12.40;;;11.90;;
20179;SDS011;10249;48.900;9.090;2022-10-31T12:45:44;12.60;;;12.10;;
20179;SDS011;10249;48.900;9.090;2022-10-31T12:48:24;12.33;;;11.83;;
20179;SDS011;10249;48.900;9.090;2022-10-31T12:50:55;11.70;;;11.30;;
20179;SDS011;10249;48.900;9.090;2022-10-31T12:53:27;12.17;;;11.67;;
20179;SDS011;10249;48.900;9.090;2022-10-31T12:56:01;11.90;;;11.40;;
20179;SDS011;10249;48.900;9.090;2022-10-31T12:58:32;11.53;;;11.13;;
20179;SDS011;10249;48.900;9.090;2022-10-31T13:01:03;11.70;;;11.30;;
20179;SDS011;10249;48.900;9.090;2022-10-31T13:03:33;11.50;;;11.10;;
20179;SDS011;10249;48.900;9.090;2022-10-31T13:06:04;11.20;;;10.80;;
20179;SDS011;10249;48.900;9.090;2022-10-31T13:08:34;11.00;;;10.60;;
20179;SDS011;10249;48.900;9.090;2022-10-31T13:11:05;10.63;;;10.23;;
20179;SDS011;10249;48.900;9.090;2022-10-31T13:13:34;10.87;;;10.47;;
20179;SDS011;10249;48.900;9.090;2022-10-31T13:16:03;10.50;;;10.10;;
20179;SDS011;10249;48.900;9.090;2022-10-31T13:18:33;10.67;;;10.27;;
20179;SDS011;10249;48.900;9.090;2022-10-31T13:21:02;10.50;;;10.10;;
20179;SDS011;10249;48.900;9.090;2022-10-31T13:23:31;10.10;;;9.80;;
20179;SDS011;10249;48.900;9.090;2022-10-31T13:25:59;10.10;;;9.80;;
20179;SDS011;10249;48.900;9.090;2022-10-31T13:28:29;10.00;;;9.70;;
20179;SDS011;10249;48.900;9.090;2022-10-31T13:31:00;10.17;;;9.83;;
20179;SDS011;10249;48.900;9.090;2022-10-31T13:33:28;10.00;;;9.70;;
20179;SDS011;10249;48.900;9.090;2022-10-31T13:36:01;9.70;;;9.40;;
20179;SDS011;10249;48.900;9.090;2022-10-31T13:38:33;9.97;;;9.67;;
20179;SDS011;10249;48.900;9.090;2022-10-31T13:41:04;10.00;;;9.70;;
20179;SDS011;10249;48.900;9.090;2022-10-31T13:43:36;10.53;;;10.13;;
20179;SDS011;10249;48.900;9.090;2022-10-31T13:46:20;11.00;;;10.60;;
20179;SDS011;10249;48.900;9.090;2022-10-31T13:48:48;11.37;;;10.97;;
20179;SDS011;10249;48.900;9.090;2022-10-31T13:51:23;10.23;;;9.83;;
20179;SDS011;10249;48.900;9.090;2022-10-31T13:53:56;10.60;;;10.20;;
20179;SDS011;10249;48.900;9.090;2022-10-31T13:56:24;11.10;;;10.70;;
20179;SDS011;10249;48.900;9.090;2022-10-31T13:58:56;11.30;;;10.90;;
20179;SDS011;10249;48.900;9.090;2022-10-31T14:01:23;13.67;;;12.87;;
20179;SDS011;10249;48.900;9.090;2022-10-31T14:03:57;11.07;;;10.67;;
20179;SDS011;10249;48.900;9.090;2022-10-31T14:06:35;12.20;;;11.50;;
20179;SDS011;10249;48.900;9.090;2022-10-31T14:09:03;10.30;;;9.90;;
20179;SDS011;10249;48.900;9.090;2022-10-31T14:11:30;9.50;;;9.20;;
20179;SDS011;10249;48.900;9.090;2022-10-31T14:13:57;9.67;;;9.37;;
20179;SDS011;10249;48.900;9.090;2022-10-31T14:16:26;9.63;;;9.33;;
20179;SDS011;10249;48.900;9.090;2022-10-31T14:18:57;10.00;;;9.70;;
20179;SDS011;10249;48.900;9.090;2022-10-31T14:21:26;9.90;;;9.60;;
20179;SDS011;10249;48.900;9.090;2022-10-31T14:23:55;10.40;;;10.00;;
20179;SDS011;10249;48.900;9.090;2022-10-31T14:26:33;10.70;;;10.30;;
20179;SDS011;10249;48.900;9.090;2022-10-31T14:29:00;10.50;;;10.10;;
20179;SDS011;10249;48.900;9.090;2022-10-31T14:31:32;10.70;;;10.30;;
20179;SDS011;10249;48.900;9.090;2022-10-31T14:34:17;10.53;;;10.13;;
20179;SDS011;10249;48.900;9.090;2022-10-31T14:36:48;10.47;;;10.07;;
20179;SDS011;10249;48.900;9.090;2022-10-31T14:39:20;10.30;;;9.90;;
20179;SDS011;10249;48.900;9.090;2022-10-31T14:41:53;13.73;;;13.00;;
20179;SDS011;10249;48.900;9.090;2022-10-31T14:44:39;9.73;;;9.43;;
20179;SDS011;10249;48.900;9.090;2022-10-31T14:47:10;9.60;;;9.30;;
20179;SDS011;10249;48.900;9.090;2022-10-31T14:49:45;10.20;;;9.80;;
20179;SDS011;10249;48.900;9.090;2022-10-31T14:52:15;11.20;;;10.40;;
20179;SDS011;10249;48.900;9.090;2022-10-31T14:54:45;10.00;;;9.70;;
20179;SDS011;10249;48.900;9.090;2022-10-31T14:57:14;10.10;;;9.80;;
20179;SDS011;10249;48.900;9.090;2022-10-31T14:59:43;10.40;;;10.00;;